sensor_id;sensor_type;location;lat;lon;timestamp;P1;durP1;ratioP1;P2;durP2;ratioP2
12878;SDS011;20617;49.476;10.986;2024-02-28T00:00:31;29.98;;;21.73;;
12878;SDS011;20617;49.476;10.986;2024-02-28T00:02:32;31.48;;;21.85;;
12878;SDS011;20617;49.476;10.986;2024-02-28T00:04:33;31.02;;;22.77;;
12878;SDS011;20617;49.476;10.986;2024-02-28T00:06:34;29.50;;;21.77;;
12878;SDS011;20617;49.476;10.986;2024-02-28T00:08:35;30.10;;;22.27;;
12878;SDS011;20617;49.476;10.986;2024-02-28T00:10:36;29.23;;;20.75;;
12878;SDS011;20617;49.476;10.986;2024-02-28T00:12:38;29.42;;;21.15;;
12878;SDS011;20617;49.476;10.986;2024-02-28T00:14:41;30.88;;;21.63;;
12878;SDS011;20617;49.476;10.986;2024-02-28T00:16:42;26.80;;;20.52;;
12878;SDS011;20617;49.476;10.986;2024-02-28T00:18:43;33.33;;;24.70;;
12878;SDS011;20617;49.476;10.986;2024-02-28T00:20:44;26.98;;;21.25;;
12878;SDS011;20617;49.476;10.986;2024-02-28T00:22:45;27.65;;;21.23;;
12878;SDS011;20617;49.476;10.986;2024-02-28T00:24:47;29.25;;;21.77;;
12878;SDS011;20617;49.476;10.986;2024-02-28T00:26:49;27.02;;;20.58;;
12878;SDS011;20617;49.476;10.986;2024-02-28T00:28:49;31.08;;;23.50;;
12878;SDS011;20617;49.476;10.986;2024-02-28T00:30:53;27.90;;;21.52;;
12878;SDS011;20617;49.476;10.986;2024-02-28T00:32:54;29.13;;;19.92;;
12878;SDS011;20617;49.476;10.986;2024-02-28T00:34:55;30.17;;;21.52;;
12878;SDS011;20617;49.476;10.986;2024-02-28T00:36:57;27.60;;;20.10;;
12878;SDS011;20617;49.476;10.986;2024-02-28T00:38:57;28.05;;;21.95;;
12878;SDS011;20617;49.476;10.986;2024-02-28T00:40:58;29.25;;;21.38;;
12878;SDS011;20617;49.476;10.986;2024-02-28T00:42:59;25.90;;;19.45;;
12878;SDS011;20617;49.476;10.986;2024-02-28T00:44:59;30.02;;;21.20;;
12878;SDS011;20617;49.476;10.986;2024-02-28T00:47:03;31.77;;;23.15;;
12878;SDS011;20617;49.476;10.986;2024-02-28T00:49:04;31.25;;;22.20;;
12878;SDS011;20617;49.476;10.986;2024-02-28T00:51:04;27.92;;;20.23;;
12878;SDS011;20617;49.476;10.986;2024-02-28T00:53:08;27.45;;;19.02;;
12878;SDS011;20617;49.476;10.986;2024-02-28T00:55:08;26.98;;;19.90;;
12878;SDS011;20617;49.476;10.986;2024-02-28T00:57:09;26.98;;;20.02;;
12878;SDS011;20617;49.476;10.986;2024-02-28T00:59:10;29.50;;;19.90;;
12878;SDS011;20617;49.476;10.986;2024-02-28T01:01:10;27.42;;;19.95;;
12878;SDS011;20617;49.476;10.986;2024-02-28T01:03:14;31.15;;;22.17;;
12878;SDS011;20617;49.476;10.986;2024-02-28T01:05:15;25.85;;;19.65;;
12878;SDS011;20617;49.476;10.986;2024-02-28T01:07:16;27.63;;;20.90;;
12878;SDS011;20617;49.476;10.986;2024-02-28T01:09:17;26.13;;;19.92;;
12878;SDS011;20617;49.476;10.986;2024-02-28T01:11:18;25.83;;;19.77;;
12878;SDS011;20617;49.476;10.986;2024-02-28T01:13:18;29.40;;;21.30;;
12878;SDS011;20617;49.476;10.986;2024-02-28T01:15:22;29.67;;;21.23;;
12878;SDS011;20617;49.476;10.986;2024-02-28T01:17:22;26.15;;;20.63;;
12878;SDS011;20617;49.476;10.986;2024-02-28T01:19:26;32.25;;;22.52;;
12878;SDS011;20617;49.476;10.986;2024-02-28T01:21:27;31.20;;;22.45;;
12878;SDS011;20617;49.476;10.986;2024-02-28T01:23:29;31.05;;;22.42;;
12878;SDS011;20617;49.476;10.986;2024-02-28T01:25:29;31.40;;;21.92;;
12878;SDS011;20617;49.476;10.986;2024-02-28T01:27:30;30.25;;;20.70;;
12878;SDS011;20617;49.476;10.986;2024-02-28T01:29:32;28.25;;;20.40;;
12878;SDS011;20617;49.476;10.986;2024-02-28T01:31:33;30.20;;;21.08;;
12878;SDS011;20617;49.476;10.986;2024-02-28T01:33:34;32.95;;;23.35;;
12878;SDS011;20617;49.476;10.986;2024-02-28T01:35:37;31.55;;;22.33;;
12878;SDS011;20617;49.476;10.986;2024-02-28T01:37:38;27.65;;;20.63;;
12878;SDS011;20617;49.476;10.986;2024-02-28T01:39:39;31.60;;;21.20;;
12878;SDS011;20617;49.476;10.986;2024-02-28T01:41:41;27.65;;;21.27;;
12878;SDS011;20617;49.476;10.986;2024-02-28T01:43:51;28.83;;;21.20;;
12878;SDS011;20617;49.476;10.986;2024-02-28T01:45:52;31.10;;;22.92;;
12878;SDS011;20617;49.476;10.986;2024-02-28T01:47:54;30.40;;;21.95;;
12878;SDS011;20617;49.476;10.986;2024-02-28T01:49:55;28.83;;;21.55;;
12878;SDS011;20617;49.476;10.986;2024-02-28T01:51:59;31.48;;;22.95;;
12878;SDS011;20617;49.476;10.986;2024-02-28T01:54:00;28.33;;;20.67;;
12878;SDS011;20617;49.476;10.986;2024-02-28T01:56:00;29.40;;;20.58;;
12878;SDS011;20617;49.476;10.986;2024-02-28T01:58:02;28.23;;;20.80;;
12878;SDS011;20617;49.476;10.986;2024-02-28T02:00:05;29.02;;;20.80;;
12878;SDS011;20617;49.476;10.986;2024-02-28T02:02:07;28.23;;;21.77;;
12878;SDS011;20617;49.476;10.986;2024-02-28T02:04:08;27.75;;;19.30;;
12878;SDS011;20617;49.476;10.986;2024-02-28T02:06:08;28.40;;;19.98;;
12878;SDS011;20617;49.476;10.986;2024-02-28T02:08:12;26.85;;;19.33;;
12878;SDS011;20617;49.476;10.986;2024-02-28T02:10:14;26.40;;;20.08;;
12878;SDS011;20617;49.476;10.986;2024-02-28T02:12:14;28.70;;;21.02;;
12878;SDS011;20617;49.476;10.986;2024-02-28T02:14:15;27.15;;;19.33;;
12878;SDS011;20617;49.476;10.986;2024-02-28T02:16:16;29.50;;;20.70;;
12878;SDS011;20617;49.476;10.986;2024-02-28T02:18:17;27.70;;;20.80;;
12878;SDS011;20617;49.476;10.986;2024-02-28T02:20:19;29.77;;;20.83;;
12878;SDS011;20617;49.476;10.986;2024-02-28T02:22:24;27.03;;;19.57;;
12878;SDS011;20617;49.476;10.986;2024-02-28T02:24:32;29.00;;;19.73;;
12878;SDS011;20617;49.476;10.986;2024-02-28T02:26:33;28.73;;;22.33;;
12878;SDS011;20617;49.476;10.986;2024-02-28T02:28:33;26.77;;;19.98;;
12878;SDS011;20617;49.476;10.986;2024-02-28T02:30:34;28.05;;;19.50;;
12878;SDS011;20617;49.476;10.986;2024-02-28T02:32:35;28.42;;;20.38;;
12878;SDS011;20617;49.476;10.986;2024-02-28T02:34:36;27.40;;;19.48;;
12878;SDS011;20617;49.476;10.986;2024-02-28T02:36:39;28.15;;;19.88;;
12878;SDS011;20617;49.476;10.986;2024-02-28T02:38:40;30.25;;;22.33;;
12878;SDS011;20617;49.476;10.986;2024-02-28T02:40:43;28.40;;;20.60;;
12878;SDS011;20617;49.476;10.986;2024-02-28T02:42:44;28.33;;;20.67;;
12878;SDS011;20617;49.476;10.986;2024-02-28T02:44:44;25.67;;;17.65;;
12878;SDS011;20617;49.476;10.986;2024-02-28T02:46:45;25.50;;;19.08;;
12878;SDS011;20617;49.476;10.986;2024-02-28T02:48:46;23.77;;;18.17;;
12878;SDS011;20617;49.476;10.986;2024-02-28T02:50:47;24.92;;;18.70;;
12878;SDS011;20617;49.476;10.986;2024-02-28T02:52:47;25.98;;;19.45;;
12878;SDS011;20617;49.476;10.986;2024-02-28T02:54:48;28.33;;;19.85;;
12878;SDS011;20617;49.476;10.986;2024-02-28T02:56:52;26.75;;;19.73;;
12878;SDS011;20617;49.476;10.986;2024-02-28T02:58:53;29.50;;;23.08;;
12878;SDS011;20617;49.476;10.986;2024-02-28T03:00:53;28.70;;;21.50;;
12878;SDS011;20617;49.476;10.986;2024-02-28T03:02:56;25.65;;;18.92;;
12878;SDS011;20617;49.476;10.986;2024-02-28T03:04:57;26.85;;;19.25;;
12878;SDS011;20617;49.476;10.986;2024-02-28T03:06:58;28.77;;;24.23;;
12878;SDS011;20617;49.476;10.986;2024-02-28T03:08:59;28.95;;;22.95;;
12878;SDS011;20617;49.476;10.986;2024-02-28T03:11:00;27.77;;;22.25;;
12878;SDS011;20617;49.476;10.986;2024-02-28T03:13:04;29.77;;;23.15;;
12878;SDS011;20617;49.476;10.986;2024-02-28T03:15:05;30.23;;;22.02;;
12878;SDS011;20617;49.476;10.986;2024-02-28T03:17:06;27.42;;;21.00;;
12878;SDS011;20617;49.476;10.986;2024-02-28T03:19:07;27.35;;;20.95;;
12878;SDS011;20617;49.476;10.986;2024-02-28T03:21:07;28.52;;;20.23;;
12878;SDS011;20617;49.476;10.986;2024-02-28T03:23:08;26.02;;;19.85;;
12878;SDS011;20617;49.476;10.986;2024-02-28T03:25:11;32.90;;;23.17;;
12878;SDS011;20617;49.476;10.986;2024-02-28T03:27:12;27.70;;;21.00;;
12878;SDS011;20617;49.476;10.986;2024-02-28T03:29:15;23.75;;;18.13;;
12878;SDS011;20617;49.476;10.986;2024-02-28T03:31:18;26.88;;;20.75;;
12878;SDS011;20617;49.476;10.986;2024-02-28T03:33:18;25.25;;;19.48;;
12878;SDS011;20617;49.476;10.986;2024-02-28T03:35:19;26.65;;;20.27;;
12878;SDS011;20617;49.476;10.986;2024-02-28T03:37:20;23.08;;;17.67;;
12878;SDS011;20617;49.476;10.986;2024-02-28T03:39:21;24.90;;;18.33;;
12878;SDS011;20617;49.476;10.986;2024-02-28T03:41:21;23.45;;;16.80;;
12878;SDS011;20617;49.476;10.986;2024-02-28T03:43:22;24.65;;;17.23;;
12878;SDS011;20617;49.476;10.986;2024-02-28T03:45:27;24.45;;;17.75;;
12878;SDS011;20617;49.476;10.986;2024-02-28T03:47:28;23.13;;;17.35;;
12878;SDS011;20617;49.476;10.986;2024-02-28T03:49:28;24.38;;;17.90;;
12878;SDS011;20617;49.476;10.986;2024-02-28T03:51:29;23.40;;;17.10;;
12878;SDS011;20617;49.476;10.986;2024-02-28T03:53:30;22.77;;;16.73;;
12878;SDS011;20617;49.476;10.986;2024-02-28T03:55:31;22.85;;;17.42;;
12878;SDS011;20617;49.476;10.986;2024-02-28T03:57:31;25.52;;;18.15;;
12878;SDS011;20617;49.476;10.986;2024-02-28T03:59:32;21.60;;;16.58;;
12878;SDS011;20617;49.476;10.986;2024-02-28T04:01:35;24.63;;;18.42;;
12878;SDS011;20617;49.476;10.986;2024-02-28T04:03:37;21.52;;;16.05;;
12878;SDS011;20617;49.476;10.986;2024-02-28T04:05:38;25.85;;;18.02;;
12878;SDS011;20617;49.476;10.986;2024-02-28T04:07:39;25.45;;;19.00;;
12878;SDS011;20617;49.476;10.986;2024-02-28T04:09:41;23.90;;;16.45;;
12878;SDS011;20617;49.476;10.986;2024-02-28T04:11:44;23.23;;;17.23;;
12878;SDS011;20617;49.476;10.986;2024-02-28T04:13:45;27.55;;;20.25;;
12878;SDS011;20617;49.476;10.986;2024-02-28T04:15:46;23.08;;;17.35;;
12878;SDS011;20617;49.476;10.986;2024-02-28T04:17:49;25.35;;;18.05;;
12878;SDS011;20617;49.476;10.986;2024-02-28T04:19:52;23.70;;;17.30;;
12878;SDS011;20617;49.476;10.986;2024-02-28T04:21:53;27.73;;;18.20;;
12878;SDS011;20617;49.476;10.986;2024-02-28T04:23:53;27.10;;;20.33;;
12878;SDS011;20617;49.476;10.986;2024-02-28T04:25:54;27.48;;;20.60;;
12878;SDS011;20617;49.476;10.986;2024-02-28T04:27:55;26.23;;;17.90;;
12878;SDS011;20617;49.476;10.986;2024-02-28T04:29:56;24.42;;;17.48;;
12878;SDS011;20617;49.476;10.986;2024-02-28T04:32:00;24.00;;;18.73;;
12878;SDS011;20617;49.476;10.986;2024-02-28T04:34:04;21.25;;;15.50;;
12878;SDS011;20617;49.476;10.986;2024-02-28T04:36:06;25.58;;;18.38;;
12878;SDS011;20617;49.476;10.986;2024-02-28T04:38:07;21.77;;;15.95;;
12878;SDS011;20617;49.476;10.986;2024-02-28T04:40:08;25.88;;;18.30;;
12878;SDS011;20617;49.476;10.986;2024-02-28T04:42:10;23.92;;;17.77;;
12878;SDS011;20617;49.476;10.986;2024-02-28T04:44:11;25.20;;;17.23;;
12878;SDS011;20617;49.476;10.986;2024-02-28T04:46:12;22.05;;;16.33;;
12878;SDS011;20617;49.476;10.986;2024-02-28T04:48:13;23.15;;;18.00;;
12878;SDS011;20617;49.476;10.986;2024-02-28T04:50:17;24.23;;;17.88;;
12878;SDS011;20617;49.476;10.986;2024-02-28T04:52:17;20.27;;;15.98;;
12878;SDS011;20617;49.476;10.986;2024-02-28T04:54:18;23.10;;;17.58;;
12878;SDS011;20617;49.476;10.986;2024-02-28T04:56:19;25.58;;;17.33;;
12878;SDS011;20617;49.476;10.986;2024-02-28T04:58:20;24.67;;;18.63;;
12878;SDS011;20617;49.476;10.986;2024-02-28T05:00:21;25.65;;;18.50;;
12878;SDS011;20617;49.476;10.986;2024-02-28T05:02:23;21.92;;;16.13;;
12878;SDS011;20617;49.476;10.986;2024-02-28T05:04:24;24.50;;;16.85;;
12878;SDS011;20617;49.476;10.986;2024-02-28T05:06:28;21.73;;;16.83;;
12878;SDS011;20617;49.476;10.986;2024-02-28T05:08:28;24.23;;;17.02;;
12878;SDS011;20617;49.476;10.986;2024-02-28T05:10:29;25.75;;;19.02;;
12878;SDS011;20617;49.476;10.986;2024-02-28T05:12:30;22.98;;;16.77;;
12878;SDS011;20617;49.476;10.986;2024-02-28T05:14:31;25.30;;;19.17;;
12878;SDS011;20617;49.476;10.986;2024-02-28T05:16:32;22.67;;;16.55;;
12878;SDS011;20617;49.476;10.986;2024-02-28T05:18:32;23.58;;;16.55;;
12878;SDS011;20617;49.476;10.986;2024-02-28T05:20:33;24.60;;;18.58;;
12878;SDS011;20617;49.476;10.986;2024-02-28T05:22:37;24.30;;;17.20;;
12878;SDS011;20617;49.476;10.986;2024-02-28T05:24:38;26.50;;;17.25;;
12878;SDS011;20617;49.476;10.986;2024-02-28T05:26:39;23.77;;;17.52;;
12878;SDS011;20617;49.476;10.986;2024-02-28T05:28:40;27.67;;;20.15;;
12878;SDS011;20617;49.476;10.986;2024-02-28T05:30:40;21.63;;;16.73;;
12878;SDS011;20617;49.476;10.986;2024-02-28T05:32:41;23.75;;;17.05;;
12878;SDS011;20617;49.476;10.986;2024-02-28T05:34:42;22.98;;;18.08;;
12878;SDS011;20617;49.476;10.986;2024-02-28T05:36:42;22.30;;;16.25;;
12878;SDS011;20617;49.476;10.986;2024-02-28T05:38:46;25.42;;;18.75;;
12878;SDS011;20617;49.476;10.986;2024-02-28T05:40:47;25.42;;;18.25;;
12878;SDS011;20617;49.476;10.986;2024-02-28T05:42:48;24.27;;;17.88;;
12878;SDS011;20617;49.476;10.986;2024-02-28T05:44:49;25.90;;;17.95;;
12878;SDS011;20617;49.476;10.986;2024-02-28T05:46:50;26.88;;;16.98;;
12878;SDS011;20617;49.476;10.986;2024-02-28T05:48:50;25.85;;;18.73;;
12878;SDS011;20617;49.476;10.986;2024-02-28T05:50:51;24.77;;;18.15;;
12878;SDS011;20617;49.476;10.986;2024-02-28T05:52:52;28.92;;;18.17;;
12878;SDS011;20617;49.476;10.986;2024-02-28T05:54:56;24.63;;;18.50;;
12878;SDS011;20617;49.476;10.986;2024-02-28T05:56:57;24.15;;;18.52;;
12878;SDS011;20617;49.476;10.986;2024-02-28T05:58:59;24.58;;;16.95;;
12878;SDS011;20617;49.476;10.986;2024-02-28T06:00:59;24.38;;;17.08;;
12878;SDS011;20617;49.476;10.986;2024-02-28T06:03:00;23.98;;;17.73;;
12878;SDS011;20617;49.476;10.986;2024-02-28T06:05:01;23.02;;;16.73;;
12878;SDS011;20617;49.476;10.986;2024-02-28T06:07:02;25.58;;;18.17;;
12878;SDS011;20617;49.476;10.986;2024-02-28T06:09:04;28.40;;;19.95;;
12878;SDS011;20617;49.476;10.986;2024-02-28T06:11:08;26.95;;;18.88;;
12878;SDS011;20617;49.476;10.986;2024-02-28T06:13:08;27.63;;;19.63;;
12878;SDS011;20617;49.476;10.986;2024-02-28T06:15:09;26.65;;;19.52;;
12878;SDS011;20617;49.476;10.986;2024-02-28T06:17:11;28.67;;;19.77;;
12878;SDS011;20617;49.476;10.986;2024-02-28T06:19:13;27.17;;;18.15;;
12878;SDS011;20617;49.476;10.986;2024-02-28T06:21:14;27.42;;;18.13;;
12878;SDS011;20617;49.476;10.986;2024-02-28T06:23:15;27.63;;;19.40;;
12878;SDS011;20617;49.476;10.986;2024-02-28T06:25:16;26.77;;;18.50;;
12878;SDS011;20617;49.476;10.986;2024-02-28T06:27:19;28.33;;;18.70;;
12878;SDS011;20617;49.476;10.986;2024-02-28T06:29:20;28.58;;;18.92;;
12878;SDS011;20617;49.476;10.986;2024-02-28T06:31:22;27.27;;;17.92;;
12878;SDS011;20617;49.476;10.986;2024-02-28T06:33:24;27.88;;;19.98;;
12878;SDS011;20617;49.476;10.986;2024-02-28T06:35:25;27.83;;;20.27;;
12878;SDS011;20617;49.476;10.986;2024-02-28T06:37:27;26.98;;;17.95;;
12878;SDS011;20617;49.476;10.986;2024-02-28T06:39:28;23.08;;;16.65;;
12878;SDS011;20617;49.476;10.986;2024-02-28T06:41:30;24.73;;;17.50;;
12878;SDS011;20617;49.476;10.986;2024-02-28T06:43:35;23.88;;;16.95;;
12878;SDS011;20617;49.476;10.986;2024-02-28T06:45:36;25.58;;;17.73;;
12878;SDS011;20617;49.476;10.986;2024-02-28T06:47:37;24.50;;;17.20;;
12878;SDS011;20617;49.476;10.986;2024-02-28T06:49:37;24.05;;;17.40;;
12878;SDS011;20617;49.476;10.986;2024-02-28T06:51:38;22.70;;;15.00;;
12878;SDS011;20617;49.476;10.986;2024-02-28T06:53:39;25.25;;;17.75;;
12878;SDS011;20617;49.476;10.986;2024-02-28T06:55:40;22.38;;;15.98;;
12878;SDS011;20617;49.476;10.986;2024-02-28T06:57:41;25.63;;;19.17;;
12878;SDS011;20617;49.476;10.986;2024-02-28T06:59:46;24.35;;;16.90;;
12878;SDS011;20617;49.476;10.986;2024-02-28T07:01:47;25.90;;;15.68;;
12878;SDS011;20617;49.476;10.986;2024-02-28T07:03:49;23.70;;;16.38;;
12878;SDS011;20617;49.476;10.986;2024-02-28T07:05:50;23.58;;;15.93;;
12878;SDS011;20617;49.476;10.986;2024-02-28T07:07:51;25.85;;;19.52;;
12878;SDS011;20617;49.476;10.986;2024-02-28T07:09:52;21.92;;;15.85;;
12878;SDS011;20617;49.476;10.986;2024-02-28T07:11:55;22.23;;;16.33;;
12878;SDS011;20617;49.476;10.986;2024-02-28T07:13:55;21.40;;;15.35;;
12878;SDS011;20617;49.476;10.986;2024-02-28T07:16:00;21.35;;;15.60;;
12878;SDS011;20617;49.476;10.986;2024-02-28T07:18:01;20.83;;;14.50;;
12878;SDS011;20617;49.476;10.986;2024-02-28T07:20:01;20.08;;;14.73;;
12878;SDS011;20617;49.476;10.986;2024-02-28T07:22:03;21.77;;;15.57;;
12878;SDS011;20617;49.476;10.986;2024-02-28T07:24:05;19.63;;;15.20;;
12878;SDS011;20617;49.476;10.986;2024-02-28T07:26:06;19.85;;;15.48;;
12878;SDS011;20617;49.476;10.986;2024-02-28T07:28:07;22.50;;;16.60;;
12878;SDS011;20617;49.476;10.986;2024-02-28T07:30:08;22.15;;;16.23;;
12878;SDS011;20617;49.476;10.986;2024-02-28T07:32:11;23.10;;;15.77;;
12878;SDS011;20617;49.476;10.986;2024-02-28T07:34:12;17.70;;;13.68;;
12878;SDS011;20617;49.476;10.986;2024-02-28T07:36:13;18.60;;;13.77;;
12878;SDS011;20617;49.476;10.986;2024-02-28T07:38:15;20.63;;;14.82;;
12878;SDS011;20617;49.476;10.986;2024-02-28T07:40:16;18.13;;;13.13;;
12878;SDS011;20617;49.476;10.986;2024-02-28T07:42:17;21.05;;;14.07;;
12878;SDS011;20617;49.476;10.986;2024-02-28T07:44:18;23.55;;;15.98;;
12878;SDS011;20617;49.476;10.986;2024-02-28T07:46:20;17.58;;;13.88;;
12878;SDS011;20617;49.476;10.986;2024-02-28T07:48:24;19.02;;;14.88;;
12878;SDS011;20617;49.476;10.986;2024-02-28T07:50:25;21.38;;;16.48;;
12878;SDS011;20617;49.476;10.986;2024-02-28T07:52:25;19.63;;;14.68;;
12878;SDS011;20617;49.476;10.986;2024-02-28T07:54:27;19.48;;;14.98;;
12878;SDS011;20617;49.476;10.986;2024-02-28T07:56:28;17.15;;;13.20;;
12878;SDS011;20617;49.476;10.986;2024-02-28T07:58:29;18.67;;;14.63;;
12878;SDS011;20617;49.476;10.986;2024-02-28T08:00:30;19.17;;;14.95;;
12878;SDS011;20617;49.476;10.986;2024-02-28T08:02:31;18.60;;;15.20;;
12878;SDS011;20617;49.476;10.986;2024-02-28T08:04:34;19.50;;;14.50;;
12878;SDS011;20617;49.476;10.986;2024-02-28T08:06:36;22.77;;;16.20;;
12878;SDS011;20617;49.476;10.986;2024-02-28T08:08:40;19.90;;;14.60;;
12878;SDS011;20617;49.476;10.986;2024-02-28T08:10:43;20.02;;;14.70;;
12878;SDS011;20617;49.476;10.986;2024-02-28T08:12:44;18.77;;;15.02;;
12878;SDS011;20617;49.476;10.986;2024-02-28T08:14:45;21.08;;;15.43;;
12878;SDS011;20617;49.476;10.986;2024-02-28T08:16:45;21.70;;;15.85;;
12878;SDS011;20617;49.476;10.986;2024-02-28T08:18:46;21.50;;;16.48;;
12878;SDS011;20617;49.476;10.986;2024-02-28T08:20:50;20.73;;;15.52;;
12878;SDS011;20617;49.476;10.986;2024-02-28T08:22:50;20.15;;;15.52;;
12878;SDS011;20617;49.476;10.986;2024-02-28T08:24:51;22.02;;;17.45;;
12878;SDS011;20617;49.476;10.986;2024-02-28T08:26:55;20.77;;;15.52;;
12878;SDS011;20617;49.476;10.986;2024-02-28T08:28:56;22.95;;;16.30;;
12878;SDS011;20617;49.476;10.986;2024-02-28T08:30:59;19.98;;;16.17;;
12878;SDS011;20617;49.476;10.986;2024-02-28T08:33:00;19.50;;;15.00;;
12878;SDS011;20617;49.476;10.986;2024-02-28T08:35:01;18.23;;;14.07;;
12878;SDS011;20617;49.476;10.986;2024-02-28T08:37:04;17.92;;;13.20;;
12878;SDS011;20617;49.476;10.986;2024-02-28T08:39:05;18.42;;;13.77;;
12878;SDS011;20617;49.476;10.986;2024-02-28T08:41:06;21.13;;;14.90;;
12878;SDS011;20617;49.476;10.986;2024-02-28T08:43:07;18.60;;;14.60;;
12878;SDS011;20617;49.476;10.986;2024-02-28T08:45:09;19.02;;;13.77;;
12878;SDS011;20617;49.476;10.986;2024-02-28T08:47:10;18.52;;;13.80;;
12878;SDS011;20617;49.476;10.986;2024-02-28T08:49:12;17.08;;;13.68;;
12878;SDS011;20617;49.476;10.986;2024-02-28T08:51:13;19.70;;;15.18;;
12878;SDS011;20617;49.476;10.986;2024-02-28T08:53:26;17.88;;;14.02;;
12878;SDS011;20617;49.476;10.986;2024-02-28T08:55:27;17.05;;;12.77;;
12878;SDS011;20617;49.476;10.986;2024-02-28T08:57:28;16.98;;;12.98;;
12878;SDS011;20617;49.476;10.986;2024-02-28T08:59:28;20.13;;;14.98;;
12878;SDS011;20617;49.476;10.986;2024-02-28T09:01:29;14.93;;;12.45;;
12878;SDS011;20617;49.476;10.986;2024-02-28T09:03:30;15.43;;;12.80;;
12878;SDS011;20617;49.476;10.986;2024-02-28T09:05:30;17.10;;;13.18;;
12878;SDS011;20617;49.476;10.986;2024-02-28T09:07:31;17.33;;;13.40;;
12878;SDS011;20617;49.476;10.986;2024-02-28T09:09:34;15.90;;;11.63;;
12878;SDS011;20617;49.476;10.986;2024-02-28T09:11:35;16.10;;;13.25;;
12878;SDS011;20617;49.476;10.986;2024-02-28T09:13:36;17.77;;;11.90;;
12878;SDS011;20617;49.476;10.986;2024-02-28T09:15:37;15.57;;;10.90;;
12878;SDS011;20617;49.476;10.986;2024-02-28T09:17:38;13.98;;;11.05;;
12878;SDS011;20617;49.476;10.986;2024-02-28T09:19:38;15.80;;;12.43;;
12878;SDS011;20617;49.476;10.986;2024-02-28T09:21:41;16.55;;;12.25;;
12878;SDS011;20617;49.476;10.986;2024-02-28T09:23:42;14.52;;;11.93;;
12878;SDS011;20617;49.476;10.986;2024-02-28T09:25:45;14.50;;;11.48;;
12878;SDS011;20617;49.476;10.986;2024-02-28T09:27:46;14.52;;;12.15;;
12878;SDS011;20617;49.476;10.986;2024-02-28T09:29:47;17.52;;;14.45;;
12878;SDS011;20617;49.476;10.986;2024-02-28T09:31:48;17.60;;;14.05;;
12878;SDS011;20617;49.476;10.986;2024-02-28T09:33:48;15.93;;;12.80;;
12878;SDS011;20617;49.476;10.986;2024-02-28T09:35:49;18.15;;;12.45;;
12878;SDS011;20617;49.476;10.986;2024-02-28T09:37:50;16.58;;;11.77;;
12878;SDS011;20617;49.476;10.986;2024-02-28T09:39:50;17.25;;;13.63;;
12878;SDS011;20617;49.476;10.986;2024-02-28T09:41:54;15.98;;;12.50;;
12878;SDS011;20617;49.476;10.986;2024-02-28T09:43:54;15.98;;;12.73;;
12878;SDS011;20617;49.476;10.986;2024-02-28T09:45:56;17.33;;;14.70;;
12878;SDS011;20617;49.476;10.986;2024-02-28T09:47:59;16.63;;;13.68;;
12878;SDS011;20617;49.476;10.986;2024-02-28T09:50:00;15.65;;;12.35;;
12878;SDS011;20617;49.476;10.986;2024-02-28T09:52:02;16.10;;;11.75;;
12878;SDS011;20617;49.476;10.986;2024-02-28T09:54:04;16.02;;;12.45;;
12878;SDS011;20617;49.476;10.986;2024-02-28T09:56:05;17.10;;;13.20;;
12878;SDS011;20617;49.476;10.986;2024-02-28T09:58:09;14.07;;;11.60;;
12878;SDS011;20617;49.476;10.986;2024-02-28T10:00:12;15.55;;;12.43;;
12878;SDS011;20617;49.476;10.986;2024-02-28T10:02:14;15.80;;;12.55;;
12878;SDS011;20617;49.476;10.986;2024-02-28T10:04:17;17.30;;;13.18;;
12878;SDS011;20617;49.476;10.986;2024-02-28T10:06:18;17.33;;;12.43;;
12878;SDS011;20617;49.476;10.986;2024-02-28T10:08:19;16.38;;;12.35;;
12878;SDS011;20617;49.476;10.986;2024-02-28T10:10:21;15.57;;;12.30;;
12878;SDS011;20617;49.476;10.986;2024-02-28T10:12:24;15.55;;;12.32;;
12878;SDS011;20617;49.476;10.986;2024-02-28T10:14:28;17.52;;;13.93;;
12878;SDS011;20617;49.476;10.986;2024-02-28T10:16:29;17.88;;;13.10;;
12878;SDS011;20617;49.476;10.986;2024-02-28T10:18:30;18.13;;;13.43;;
12878;SDS011;20617;49.476;10.986;2024-02-28T10:20:30;17.98;;;12.88;;
12878;SDS011;20617;49.476;10.986;2024-02-28T10:22:33;17.10;;;13.38;;
12878;SDS011;20617;49.476;10.986;2024-02-28T10:24:35;18.17;;;16.17;;
12878;SDS011;20617;49.476;10.986;2024-02-28T10:26:44;16.98;;;13.27;;
12878;SDS011;20617;49.476;10.986;2024-02-28T10:28:44;19.08;;;13.85;;
12878;SDS011;20617;49.476;10.986;2024-02-28T10:30:48;18.75;;;13.52;;
12878;SDS011;20617;49.476;10.986;2024-02-28T10:32:49;18.25;;;13.80;;
12878;SDS011;20617;49.476;10.986;2024-02-28T10:34:49;17.05;;;12.65;;
12878;SDS011;20617;49.476;10.986;2024-02-28T10:36:51;19.77;;;15.27;;
12878;SDS011;20617;49.476;10.986;2024-02-28T10:38:55;14.55;;;12.25;;
12878;SDS011;20617;49.476;10.986;2024-02-28T10:40:56;16.50;;;12.98;;
12878;SDS011;20617;49.476;10.986;2024-02-28T10:42:57;18.77;;;14.35;;
12878;SDS011;20617;49.476;10.986;2024-02-28T10:44:59;16.80;;;12.77;;
12878;SDS011;20617;49.476;10.986;2024-02-28T10:47:05;18.20;;;12.45;;
12878;SDS011;20617;49.476;10.986;2024-02-28T10:49:08;18.85;;;13.18;;
12878;SDS011;20617;49.476;10.986;2024-02-28T10:51:10;15.20;;;12.57;;
12878;SDS011;20617;49.476;10.986;2024-02-28T10:53:15;16.73;;;13.27;;
12878;SDS011;20617;49.476;10.986;2024-02-28T10:55:21;18.30;;;14.07;;
12878;SDS011;20617;49.476;10.986;2024-02-28T10:57:22;19.13;;;14.77;;
12878;SDS011;20617;49.476;10.986;2024-02-28T10:59:25;15.50;;;13.20;;
12878;SDS011;20617;49.476;10.986;2024-02-28T11:01:30;21.02;;;14.40;;
12878;SDS011;20617;49.476;10.986;2024-02-28T11:03:33;16.20;;;13.27;;
12878;SDS011;20617;49.476;10.986;2024-02-28T11:05:37;17.77;;;13.18;;
12878;SDS011;20617;49.476;10.986;2024-02-28T11:07:40;21.75;;;14.18;;
12878;SDS011;20617;49.476;10.986;2024-02-28T11:09:41;17.63;;;12.90;;
12878;SDS011;20617;49.476;10.986;2024-02-28T11:11:42;16.02;;;12.73;;
12878;SDS011;20617;49.476;10.986;2024-02-28T11:13:51;17.00;;;12.23;;
12878;SDS011;20617;49.476;10.986;2024-02-28T11:15:52;16.83;;;12.23;;
12878;SDS011;20617;49.476;10.986;2024-02-28T11:17:54;15.60;;;13.57;;
12878;SDS011;20617;49.476;10.986;2024-02-28T11:19:57;19.10;;;13.90;;
12878;SDS011;20617;49.476;10.986;2024-02-28T11:21:59;16.17;;;12.45;;
12878;SDS011;20617;49.476;10.986;2024-02-28T11:24:00;15.02;;;12.18;;
12878;SDS011;20617;49.476;10.986;2024-02-28T11:26:01;16.30;;;12.77;;
12878;SDS011;20617;49.476;10.986;2024-02-28T11:28:03;15.05;;;11.85;;
12878;SDS011;20617;49.476;10.986;2024-02-28T11:30:05;14.10;;;11.80;;
12878;SDS011;20617;49.476;10.986;2024-02-28T11:32:06;18.13;;;14.85;;
12878;SDS011;20617;49.476;10.986;2024-02-28T11:34:08;15.73;;;12.32;;
12878;SDS011;20617;49.476;10.986;2024-02-28T11:36:11;15.65;;;13.35;;
12878;SDS011;20617;49.476;10.986;2024-02-28T11:38:12;17.42;;;12.60;;
12878;SDS011;20617;49.476;10.986;2024-02-28T11:40:14;143.95;;;27.75;;